createdAt,value
2023-05-23T00:00:52.078Z,78.10
2023-05-23T00:03:22.869Z,78.10
2023-05-23T00:05:51.376Z,78.20
2023-05-23T00:08:19.993Z,78.20
2023-05-23T00:10:48.094Z,78.30
2023-05-23T00:13:16.276Z,78.20
2023-05-23T00:15:44.602Z,78.30
2023-05-23T00:18:14.064Z,78.30
2023-05-23T00:20:43.011Z,78.40
2023-05-23T00:23:13.807Z,78.40
2023-05-23T00:25:42.185Z,78.40
2023-05-23T00:28:10.433Z,78.50
2023-05-23T00:30:38.517Z,78.50
2023-05-23T00:33:06.671Z,78.60
2023-05-23T00:35:36.509Z,78.60
2023-05-23T00:38:04.668Z,78.60
2023-05-23T00:40:32.750Z,78.60
2023-05-23T00:43:01.296Z,78.70
2023-05-23T00:45:29.398Z,78.70
2023-05-23T00:47:59.257Z,78.70
2023-05-23T00:50:29.563Z,79.50
2023-05-23T00:53:01.612Z,78.80
2023-05-23T00:55:31.343Z,78.80
2023-05-23T00:57:59.755Z,78.80
2023-05-23T01:00:28.201Z,78.90
2023-05-23T01:02:56.580Z,78.90
2023-05-23T01:05:25.129Z,78.90
2023-05-23T01:07:53.746Z,78.90
2023-05-23T01:10:27.839Z,79.00
2023-05-23T01:13:11.236Z,79.10
2023-05-23T01:15:43.693Z,79.10
2023-05-23T01:18:17.751Z,79.10
2023-05-23T01:20:54.062Z,79.10
2023-05-23T01:23:55.765Z,79.10
2023-05-23T01:26:36.108Z,79.10
2023-05-23T01:29:12.151Z,79.10
2023-05-23T01:31:44.247Z,79.10
2023-05-23T01:34:13.952Z,79.10
2023-05-23T01:36:43.419Z,79.10
2023-05-23T01:39:12.034Z,79.20
2023-05-23T01:41:40.200Z,79.20
2023-05-23T01:44:10.093Z,79.10
2023-05-23T01:46:39.974Z,79.20
2023-05-23T01:49:12.871Z,79.30
2023-05-23T01:51:42.018Z,79.40
2023-05-23T01:54:10.726Z,79.30
2023-05-23T01:56:39.025Z,79.40
2023-05-23T01:59:07.146Z,79.40
2023-05-23T02:01:37.160Z,79.40
2023-05-23T02:04:05.441Z,79.50
2023-05-23T02:06:33.570Z,79.40
2023-05-23T02:09:01.669Z,79.40
2023-05-23T02:11:29.768Z,79.50
2023-05-23T02:13:57.842Z,79.50
2023-05-23T02:16:26.948Z,79.60
2023-05-23T02:18:57.097Z,79.50
2023-05-23T02:21:25.481Z,79.50
2023-05-23T02:23:53.565Z,79.60
2023-05-23T02:26:21.736Z,79.60
2023-05-23T02:28:49.857Z,79.50
2023-05-23T02:31:18.220Z,79.60
2023-05-23T02:33:46.387Z,79.60
2023-05-23T02:36:15.972Z,79.70
2023-05-23T02:38:44.078Z,79.70
2023-05-23T02:41:12.230Z,79.70
2023-05-23T02:43:40.409Z,79.80
2023-05-23T02:46:08.598Z,79.70
2023-05-23T02:48:36.789Z,79.70
2023-05-23T02:51:05.303Z,79.70
2023-05-23T02:53:34.773Z,79.80
2023-05-23T02:56:02.983Z,79.80
2023-05-23T02:58:31.918Z,79.90
2023-05-23T03:01:00.013Z,79.90
2023-05-23T03:03:28.801Z,79.90
2023-05-23T03:05:57.603Z,80.00
2023-05-23T03:08:25.967Z,80.00
2023-05-23T03:10:55.425Z,79.90
2023-05-23T03:13:23.685Z,79.90
2023-05-23T03:15:51.802Z,79.90
2023-05-23T03:18:19.935Z,79.90
2023-05-23T03:20:48.122Z,79.90
2023-05-23T03:23:16.477Z,79.80
2023-05-23T03:25:44.792Z,79.80
2023-05-23T03:28:14.250Z,79.90
2023-05-23T03:30:42.466Z,80.00
2023-05-23T03:33:11.197Z,80.10
2023-05-23T03:35:39.454Z,80.10
2023-05-23T03:38:07.758Z,80.10
2023-05-23T03:40:35.844Z,80.00
2023-05-23T03:43:05.303Z,80.10
2023-05-23T03:45:35.254Z,80.00
2023-05-23T03:48:03.581Z,80.10
2023-05-23T03:50:31.840Z,80.20
2023-05-23T03:52:59.900Z,80.30
2023-05-23T03:55:28.017Z,80.20
2023-05-23T03:57:56.093Z,81.00
2023-05-23T04:00:24.311Z,80.20
2023-05-23T04:02:53.895Z,80.30
2023-05-23T04:05:22.015Z,80.30
2023-05-23T04:07:51.607Z,80.30
2023-05-23T04:10:19.706Z,80.30
2023-05-23T04:12:47.991Z,80.30
2023-05-23T04:15:17.976Z,80.40
2023-05-23T04:17:46.118Z,80.40
2023-05-23T04:20:15.673Z,80.40
2023-05-23T04:22:43.803Z,80.50
2023-05-23T04:25:12.503Z,80.40
2023-05-23T04:27:41.231Z,80.50
2023-05-23T04:30:10.342Z,80.50
2023-05-23T04:32:38.577Z,80.50
2023-05-23T04:35:07.402Z,80.50
2023-05-23T04:37:37.862Z,80.50
2023-05-23T04:40:07.241Z,80.40
2023-05-23T04:42:36.121Z,80.30
2023-05-23T04:45:04.597Z,80.30
2023-05-23T04:47:37.073Z,80.30
2023-05-23T04:50:05.850Z,80.30
2023-05-23T04:52:34.415Z,80.20
2023-05-23T04:55:04.726Z,80.30
2023-05-23T04:57:32.921Z,80.20
2023-05-23T05:00:01.208Z,80.20
2023-05-23T05:02:33.863Z,80.10
2023-05-23T05:05:02.088Z,80.10
2023-05-23T05:07:30.388Z,80.00
2023-05-23T05:10:00.893Z,79.90
2023-05-23T05:12:30.749Z,79.70
2023-05-23T05:14:58.862Z,79.70
2023-05-23T05:17:27.117Z,79.70
2023-05-23T05:19:55.230Z,79.60
2023-05-23T05:22:23.324Z,79.60
2023-05-23T05:24:51.411Z,79.40
2023-05-23T05:27:19.619Z,79.40
2023-05-23T05:29:51.263Z,79.20
2023-05-23T05:32:19.482Z,79.20
2023-05-23T05:34:49.518Z,79.10
2023-05-23T05:37:17.934Z,78.90
2023-05-23T05:39:46.058Z,78.90
2023-05-23T05:42:14.149Z,78.70
2023-05-23T05:44:42.348Z,78.60
2023-05-23T05:47:11.850Z,78.60
2023-05-23T05:49:39.974Z,78.50
2023-05-23T05:52:08.586Z,78.40
2023-05-23T05:54:37.693Z,78.30
2023-05-23T05:57:06.260Z,78.30
2023-05-23T05:59:34.358Z,78.20
2023-05-23T06:02:02.443Z,78.00
2023-05-23T06:04:32.491Z,77.90
2023-05-23T06:07:00.592Z,77.80
2023-05-23T06:09:28.745Z,77.60
2023-05-23T06:11:56.822Z,77.50
2023-05-23T06:14:24.900Z,78.00
2023-05-23T06:16:53.471Z,77.30
2023-05-23T06:19:21.553Z,77.40
2023-05-23T06:21:52.066Z,77.40
2023-05-23T06:24:20.380Z,77.20
2023-05-23T06:26:48.454Z,77.20
2023-05-23T06:29:16.564Z,77.30
2023-05-23T06:31:44.676Z,77.20
2023-05-23T06:34:12.773Z,77.20
2023-05-23T06:36:42.121Z,77.30
2023-05-23T06:39:11.605Z,77.10
2023-05-23T06:41:40.575Z,76.80
2023-05-23T06:44:08.692Z,76.70
2023-05-23T06:46:39.678Z,76.70
2023-05-23T06:49:14.865Z,76.60
2023-05-23T06:51:43.501Z,76.60
2023-05-23T06:54:13.038Z,76.60
2023-05-23T06:56:41.147Z,76.50
2023-05-23T06:59:09.367Z,76.60
2023-05-23T07:01:37.660Z,76.20
2023-05-23T07:04:05.911Z,76.10
2023-05-23T07:06:35.770Z,76.00
2023-05-23T07:09:04.967Z,76.00
2023-05-23T07:11:35.459Z,76.00
2023-05-23T07:14:03.612Z,75.80
2023-05-23T07:16:31.720Z,75.70
2023-05-23T07:18:59.918Z,75.40
2023-05-23T07:21:28.004Z,75.20
2023-05-23T07:23:56.401Z,75.20
2023-05-23T07:26:24.646Z,75.20
2023-05-23T07:28:54.309Z,75.10
2023-05-23T07:31:22.488Z,75.00
2023-05-23T07:33:50.686Z,74.80
2023-05-23T07:36:23.730Z,74.60
2023-05-23T07:38:53.264Z,74.50
2023-05-23T07:41:22.129Z,74.50
2023-05-23T07:43:50.221Z,74.20
2023-05-23T07:46:20.046Z,73.80
2023-05-23T07:48:48.270Z,73.60
2023-05-23T07:51:21.387Z,73.10
2023-05-23T07:53:49.644Z,72.80
2023-05-23T07:56:17.796Z,72.70
2023-05-23T07:58:45.867Z,72.80
2023-05-23T08:01:14.011Z,72.60
2023-05-23T08:03:43.560Z,72.60
2023-05-23T08:06:11.669Z,72.60
2023-05-23T08:08:39.822Z,72.70
2023-05-23T08:11:07.914Z,72.60
2023-05-23T08:13:36.092Z,72.40
2023-05-23T08:16:04.253Z,72.40
2023-05-23T08:18:32.463Z,72.30
2023-05-23T08:21:03.124Z,71.90
2023-05-23T08:23:31.272Z,71.80
2023-05-23T08:25:59.426Z,71.70
2023-05-23T08:28:27.509Z,71.80
2023-05-23T08:30:57.181Z,71.50
2023-05-23T08:33:25.265Z,71.20
2023-05-23T08:35:53.390Z,71.00
2023-05-23T08:38:23.082Z,70.80
2023-05-23T08:40:52.590Z,70.30
2023-05-23T08:43:21.239Z,70.00
2023-05-23T08:45:52.774Z,69.80
2023-05-23T08:48:22.234Z,69.50
2023-05-23T08:50:51.971Z,69.30
2023-05-23T08:53:24.352Z,68.80
2023-05-23T08:55:54.527Z,68.40
2023-05-23T08:58:24.812Z,68.30
2023-05-23T09:00:54.278Z,68.40
2023-05-23T09:03:22.514Z,68.30
2023-05-23T09:05:51.672Z,67.90
2023-05-23T09:08:20.369Z,67.70
2023-05-23T09:10:50.935Z,67.50
2023-05-23T09:13:20.455Z,67.20
2023-05-23T09:16:00.002Z,67.00
2023-05-23T09:18:28.311Z,66.30
2023-05-23T09:20:56.425Z,66.40
2023-05-23T09:23:24.565Z,66.20
2023-05-23T09:25:54.316Z,65.80
2023-05-23T09:28:22.412Z,65.50
2023-05-23T09:30:58.629Z,65.30
2023-05-23T09:33:34.574Z,64.80
2023-05-23T09:36:02.728Z,64.60
2023-05-23T09:38:30.999Z,64.10
2023-05-23T09:41:00.914Z,63.40
2023-05-23T09:43:30.374Z,62.80
2023-05-23T09:46:02.701Z,61.80
2023-05-23T09:48:32.248Z,61.20
2023-05-23T09:51:02.884Z,61.20
2023-05-23T09:53:31.750Z,61.10
2023-05-23T09:56:04.285Z,60.60
2023-05-23T09:58:34.231Z,60.00
2023-05-23T10:01:04.251Z,59.60
2023-05-23T10:03:35.680Z,59.20
2023-05-23T10:06:09.397Z,58.90
2023-05-23T10:08:40.334Z,58.30
2023-05-23T10:11:50.878Z,58.00
2023-05-23T10:14:20.557Z,57.20
2023-05-23T10:17:00.363Z,57.20
2023-05-23T10:19:37.062Z,56.30
2023-05-23T10:22:09.585Z,56.20
2023-05-23T10:24:38.894Z,55.00
2023-05-23T10:27:08.591Z,54.50
2023-05-23T10:29:38.713Z,53.70
2023-05-23T10:32:08.203Z,53.10
2023-05-23T10:34:42.892Z,52.70
2023-05-23T10:37:16.097Z,52.40
2023-05-23T10:39:56.118Z,52.00
2023-05-23T10:42:34.797Z,51.60
2023-05-23T10:45:18.980Z,51.50
2023-05-23T10:47:48.875Z,51.40
2023-05-23T10:50:30.956Z,51.60
2023-05-23T10:52:59.074Z,51.60
2023-05-23T10:55:28.139Z,51.70
2023-05-23T10:58:12.840Z,51.70
2023-05-23T11:00:52.361Z,51.60
2023-05-23T11:03:20.995Z,51.50
2023-05-23T11:05:54.130Z,51.50
2023-05-23T11:08:32.412Z,51.20
2023-05-23T11:11:07.610Z,51.00
2023-05-23T11:14:02.543Z,50.70
2023-05-23T11:16:33.774Z,49.70
2023-05-23T11:19:26.128Z,49.70
2023-05-23T11:21:55.953Z,49.30
2023-05-23T11:24:24.856Z,49.40
2023-05-23T11:26:54.841Z,49.10
2023-05-23T11:31:52.818Z,48.40
2023-05-23T11:34:21.722Z,48.50
2023-05-23T11:36:54.982Z,48.20
2023-05-23T11:39:23.159Z,47.50
2023-05-23T11:42:01.287Z,46.50
2023-05-23T11:44:29.621Z,46.90
2023-05-23T11:47:03.060Z,46.90
2023-05-23T11:49:32.110Z,46.60
2023-05-23T11:52:00.739Z,46.40
2023-05-23T11:54:29.098Z,45.90
2023-05-23T11:56:57.653Z,45.60
2023-05-23T11:59:27.342Z,45.50
2023-05-23T12:01:55.836Z,45.30
2023-05-23T12:04:26.865Z,45.40
2023-05-23T12:06:54.998Z,44.50
2023-05-23T12:09:23.105Z,44.70
2023-05-23T12:11:51.348Z,44.30
2023-05-23T12:16:48.588Z,43.10
2023-05-23T12:19:18.843Z,43.50
2023-05-23T12:21:50.138Z,43.90
2023-05-23T12:24:20.129Z,42.90
2023-05-23T12:26:52.552Z,42.60
2023-05-23T12:29:22.331Z,42.30
2023-05-23T12:31:52.452Z,42.50
2023-05-23T12:34:23.486Z,43.00
2023-05-23T12:37:10.399Z,43.40
2023-05-23T12:39:45.581Z,43.80
2023-05-23T12:42:13.783Z,44.40
2023-05-23T12:44:43.642Z,44.50
2023-05-23T12:47:11.935Z,44.30
2023-05-23T12:49:40.199Z,44.20
2023-05-23T12:52:11.018Z,44.30
2023-05-23T12:54:39.128Z,44.30
2023-05-23T12:57:07.331Z,44.50
2023-05-23T12:59:35.410Z,44.70
2023-05-23T13:02:03.556Z,45.00
2023-05-23T13:04:32.538Z,45.00
2023-05-23T13:07:01.029Z,45.00
2023-05-23T13:09:30.502Z,45.10
2023-05-23T13:11:58.887Z,45.30
2023-05-23T13:14:27.282Z,45.70
2023-05-23T13:16:55.528Z,45.90
2023-05-23T13:19:23.660Z,45.80
2023-05-23T13:21:51.911Z,45.80
2023-05-23T13:24:20.038Z,45.70
2023-05-23T13:26:49.595Z,45.80
2023-05-23T13:29:17.689Z,45.90
2023-05-23T13:31:45.885Z,46.00
2023-05-23T13:34:14.942Z,46.10
2023-05-23T13:36:43.062Z,46.20
2023-05-23T13:39:11.587Z,46.50
2023-05-23T13:41:39.732Z,47.00
2023-05-23T13:44:09.226Z,47.10
2023-05-23T13:46:37.357Z,47.20
2023-05-23T13:49:05.448Z,47.10
2023-05-23T13:51:33.836Z,46.90
2023-05-23T13:54:01.962Z,46.90
2023-05-23T13:56:30.183Z,46.90
2023-05-23T13:58:58.281Z,47.00
2023-05-23T14:01:28.422Z,47.00
2023-05-23T14:03:56.886Z,46.90
2023-05-23T14:06:24.990Z,46.90
2023-05-23T14:08:53.096Z,46.80
2023-05-23T14:11:21.179Z,46.80
2023-05-23T14:13:49.261Z,46.90
2023-05-23T14:16:17.368Z,46.90
2023-05-23T14:18:46.904Z,47.20
2023-05-23T14:21:15.007Z,47.40
2023-05-23T14:23:43.137Z,47.40
2023-05-23T14:26:11.279Z,47.40
2023-05-23T14:28:39.398Z,47.30
2023-05-23T14:31:07.513Z,47.30
2023-05-23T14:33:35.999Z,47.40
2023-05-23T14:36:06.410Z,47.60
2023-05-23T14:38:34.523Z,47.50
2023-05-23T14:41:02.644Z,47.30
2023-05-23T14:43:30.912Z,47.20
2023-05-23T14:45:59.145Z,47.10
2023-05-23T14:48:27.403Z,47.10
2023-05-23T14:50:55.628Z,47.10
2023-05-23T14:53:25.083Z,46.90
2023-05-23T14:55:53.171Z,46.90
2023-05-23T14:58:22.320Z,47.00
2023-05-23T15:00:50.583Z,47.00
2023-05-23T15:03:19.041Z,47.10
2023-05-23T15:05:49.009Z,47.10
2023-05-23T15:08:18.164Z,47.10
2023-05-23T15:10:47.709Z,47.00
2023-05-23T15:13:15.795Z,47.20
2023-05-23T15:15:44.038Z,47.30
2023-05-23T15:18:21.346Z,47.20
2023-05-23T15:20:56.312Z,47.10
2023-05-23T15:23:24.408Z,47.10
2023-05-23T15:25:54.012Z,47.20
2023-05-23T15:28:22.322Z,47.10
2023-05-23T15:30:50.608Z,47.10
2023-05-23T15:33:18.901Z,47.10
2023-05-23T15:35:47.078Z,47.30
2023-05-23T15:38:17.161Z,47.30
2023-05-23T15:40:48.949Z,47.20
2023-05-23T15:43:18.577Z,47.20
2023-05-23T15:45:46.741Z,47.20
2023-05-23T15:48:14.936Z,47.10
2023-05-23T15:50:43.927Z,47.10
2023-05-23T15:53:12.361Z,47.20
2023-05-23T15:55:42.342Z,47.20
2023-05-23T15:58:11.290Z,47.30
2023-05-23T16:00:41.323Z,47.40
2023-05-23T16:03:09.715Z,47.40
2023-05-23T16:05:37.849Z,47.40
2023-05-23T16:08:06.142Z,47.50
2023-05-23T16:10:34.197Z,47.50
2023-05-23T16:13:02.286Z,47.60
2023-05-23T16:15:30.463Z,47.60
2023-05-23T16:18:00.013Z,47.70
2023-05-23T16:20:28.220Z,47.70
2023-05-23T16:22:56.351Z,47.90
2023-05-23T16:25:24.467Z,48.00
2023-05-23T16:27:52.538Z,48.00
2023-05-23T16:30:20.788Z,48.00
2023-05-23T16:32:48.958Z,48.10
2023-05-23T16:35:18.545Z,48.20
2023-05-23T16:37:46.641Z,48.30
2023-05-23T16:40:14.859Z,48.20
2023-05-23T16:42:43.010Z,48.20
2023-05-23T16:45:11.474Z,48.30
2023-05-23T16:47:39.684Z,48.30
2023-05-23T16:50:09.156Z,48.40
2023-05-23T16:52:39.603Z,48.40
2023-05-23T16:55:08.423Z,48.40
2023-05-23T16:57:36.556Z,48.40
2023-05-23T17:00:05.733Z,48.40
2023-05-23T17:02:33.979Z,48.50
2023-05-23T17:05:02.120Z,48.50
2023-05-23T17:07:30.220Z,48.70
2023-05-23T17:09:59.667Z,48.90
2023-05-23T17:12:27.790Z,49.20
2023-05-23T17:14:56.173Z,49.50
2023-05-23T17:17:24.523Z,49.60
2023-05-23T17:19:52.627Z,49.80
2023-05-23T17:22:21.526Z,50.00
2023-05-23T17:24:49.666Z,50.20
2023-05-23T17:27:19.406Z,50.50
2023-05-23T17:29:47.495Z,50.30
2023-05-23T17:32:15.713Z,50.20
2023-05-23T17:34:44.232Z,50.10
2023-05-23T17:37:12.614Z,50.10
2023-05-23T17:39:40.684Z,50.00
2023-05-23T17:42:08.782Z,49.90
2023-05-23T17:44:38.263Z,50.00
2023-05-23T17:47:07.118Z,49.90
2023-05-23T17:49:35.954Z,50.00
2023-05-23T17:52:05.785Z,50.00
2023-05-23T17:54:33.901Z,50.10
2023-05-23T17:57:01.989Z,50.20
2023-05-23T17:59:30.118Z,50.20
2023-05-23T18:01:59.776Z,50.40
2023-05-23T18:04:27.904Z,50.60
2023-05-23T18:06:56.038Z,50.70
2023-05-23T18:09:24.124Z,50.90
2023-05-23T18:11:52.349Z,51.20
2023-05-23T18:14:20.460Z,51.60
2023-05-23T18:16:48.641Z,52.00
2023-05-23T18:19:18.150Z,52.40
2023-05-23T18:21:46.500Z,52.80
2023-05-23T18:24:14.639Z,53.00
2023-05-23T18:26:43.323Z,53.30
2023-05-23T18:29:11.685Z,53.70
2023-05-23T18:31:39.803Z,54.10
2023-05-23T18:34:08.023Z,54.30
2023-05-23T18:36:37.819Z,54.50
2023-05-23T18:39:05.919Z,54.80
2023-05-23T18:41:34.076Z,55.00
2023-05-23T18:44:05.010Z,55.40
2023-05-23T18:46:33.142Z,55.60
2023-05-23T18:49:01.282Z,55.70
2023-05-23T18:51:29.514Z,55.80
2023-05-23T18:53:59.552Z,55.90
2023-05-23T18:56:27.687Z,56.10
2023-05-23T18:58:56.020Z,56.20
2023-05-23T19:01:24.174Z,56.40
2023-05-23T19:03:52.533Z,56.50
2023-05-23T19:06:20.700Z,56.60
2023-05-23T19:08:48.833Z,56.70
2023-05-23T19:11:18.332Z,56.90
2023-05-23T19:13:46.428Z,57.10
2023-05-23T19:16:14.725Z,57.20
2023-05-23T19:18:42.824Z,57.40
2023-05-23T19:21:11.037Z,57.70
2023-05-23T19:23:39.469Z,57.90
2023-05-23T19:26:07.714Z,58.30
2023-05-23T19:28:37.155Z,58.60
2023-05-23T19:31:05.288Z,58.90
2023-05-23T19:33:33.383Z,59.10
2023-05-23T19:36:01.538Z,59.30
2023-05-23T19:38:29.784Z,59.50
2023-05-23T19:40:57.992Z,59.50
2023-05-23T19:43:26.756Z,59.60
2023-05-23T19:45:56.443Z,59.90
2023-05-23T19:48:24.657Z,60.10
2023-05-23T19:50:52.742Z,60.90
2023-05-23T19:53:22.452Z,60.30
2023-05-23T19:55:50.794Z,61.20
2023-05-23T19:58:19.527Z,60.60
2023-05-23T20:00:47.621Z,60.40
2023-05-23T20:03:17.304Z,60.30
2023-05-23T20:05:45.990Z,60.20
2023-05-23T20:08:14.145Z,60.30
2023-05-23T20:10:43.222Z,60.20
2023-05-23T20:13:12.359Z,60.40
2023-05-23T20:15:40.820Z,60.50
2023-05-23T20:18:09.187Z,60.50
2023-05-23T20:20:38.707Z,60.60
2023-05-23T20:23:07.489Z,60.60
2023-05-23T20:25:35.696Z,60.50
2023-05-23T20:28:03.867Z,60.40
2023-05-23T20:30:32.139Z,60.20
2023-05-23T20:33:00.337Z,60.20
2023-05-23T20:35:28.617Z,60.10
2023-05-23T20:37:58.605Z,60.10
2023-05-23T20:40:29.563Z,60.20
2023-05-23T20:43:00.665Z,60.00
2023-05-23T20:45:28.958Z,60.00
2023-05-23T20:47:57.314Z,59.90
2023-05-23T20:50:25.464Z,60.00
2023-05-23T20:52:53.959Z,60.00
2023-05-23T20:55:23.471Z,60.00
2023-05-23T20:57:51.973Z,60.00
2023-05-23T21:00:21.562Z,59.90
2023-05-23T21:02:50.141Z,59.90
2023-05-23T21:05:18.402Z,59.80
2023-05-23T21:07:47.138Z,59.70
2023-05-23T21:10:15.272Z,59.70
2023-05-23T21:12:49.319Z,59.80
2023-05-23T21:15:17.607Z,59.80
2023-05-23T21:17:46.341Z,59.80
2023-05-23T21:20:14.653Z,59.90
2023-05-23T21:22:42.962Z,60.00
2023-05-23T21:25:11.420Z,60.00
2023-05-23T21:27:39.490Z,60.20
2023-05-23T21:30:10.531Z,60.30
2023-05-23T21:32:38.710Z,60.30
2023-05-23T21:35:07.650Z,60.40
2023-05-23T21:37:35.767Z,60.50
2023-05-23T21:40:03.919Z,60.60
2023-05-23T21:42:32.057Z,60.70
2023-05-23T21:45:00.244Z,60.80
2023-05-23T21:47:29.704Z,60.90
2023-05-23T21:49:57.855Z,60.90
2023-05-23T21:52:25.933Z,61.10
2023-05-23T21:54:54.055Z,61.20
2023-05-23T21:57:22.146Z,61.40
2023-05-23T21:59:50.259Z,61.40
2023-05-23T22:02:18.424Z,61.60
2023-05-23T22:04:47.912Z,61.60
2023-05-23T22:07:16.001Z,61.60
2023-05-23T22:09:44.109Z,61.80
2023-05-23T22:12:13.600Z,61.70
2023-05-23T22:14:41.715Z,61.80
2023-05-23T22:17:10.037Z,61.90
2023-05-23T22:19:38.195Z,62.10
2023-05-23T22:22:09.654Z,62.10
2023-05-23T22:24:37.853Z,62.30
2023-05-23T22:27:06.574Z,62.40
2023-05-23T22:29:34.878Z,62.40
2023-05-23T22:32:03.159Z,62.50
2023-05-23T22:34:31.261Z,62.60
2023-05-23T22:37:00.253Z,62.60
2023-05-23T22:39:30.016Z,62.70
2023-05-23T22:41:58.135Z,62.60
2023-05-23T22:44:26.282Z,62.60
2023-05-23T22:46:55.029Z,62.70
2023-05-23T22:49:25.242Z,62.60
2023-05-23T22:51:53.371Z,62.80
2023-05-23T22:54:21.474Z,62.60
2023-05-23T22:56:50.953Z,62.70
2023-05-23T22:59:19.018Z,62.80
2023-05-23T23:01:47.237Z,63.50
2023-05-23T23:04:15.623Z,62.80
2023-05-23T23:06:44.431Z,62.90
2023-05-23T23:09:12.595Z,62.90
2023-05-23T23:11:40.877Z,63.00
2023-05-23T23:14:10.348Z,63.10
2023-05-23T23:16:39.376Z,63.00
2023-05-23T23:19:07.510Z,63.00
2023-05-23T23:21:35.944Z,63.10
2023-05-23T23:24:04.088Z,63.30
2023-05-23T23:26:32.182Z,64.10
2023-05-23T23:29:00.307Z,63.40
2023-05-23T23:31:29.891Z,63.50
2023-05-23T23:33:58.005Z,63.60
2023-05-23T23:36:26.099Z,63.50
2023-05-23T23:38:54.230Z,63.50
2023-05-23T23:41:22.856Z,63.60
2023-05-23T23:43:50.940Z,63.60
2023-05-23T23:46:20.858Z,63.60
2023-05-23T23:48:50.547Z,63.60
2023-05-23T23:51:18.727Z,63.70
2023-05-23T23:53:48.713Z,63.90
2023-05-23T23:56:18.042Z,63.80
2023-05-23T23:58:46.115Z,63.80
